Buoy 44891

sailwx.info

Track history (hours):
 
Tides and Currents Weather Stations Pressure Air Temp Water Temp Dewpoint Dewpoint Depression Visibility Wind Speed Wind Dir Waves Ship Positions

Drifting buoy 44891

Last reported at 2018-Apr-19 16:00 UTC. Time now 2018-Apr-19 17:29 UTC.
Position N 39°13' W 054°02'.

Barometer 1018.4 mb
Water temperature 20.6 ° C

Date/timePositionNaut miles runAvg speedWind from/ knotsBaromVisibWave heightAir tempDewpointWater temp
2018-Apr-19 16:00N 39°13' W 054°02'1 1.2 1018.4 20.6
2018-Apr-19 15:00N 39°12' W 054°02'1 0.6 1018.7 20.6
2018-Apr-19 14:00N 39°11' W 054°02'1 0.6 1018.7 20.5
2018-Apr-19 13:00N 39°11' W 054°02'1 0.6 1018.1 20.5
2018-Apr-19 12:00N 39°10' W 054°02'1 0.6 1017.4 20.4
2018-Apr-19 11:00N 39°10' W 054°02'1 1.2 1016.7 20.2
2018-Apr-19 10:00N 39°08' W 054°02'1 0.8 1016.3 19.9
2018-Apr-19 09:00N 39°08' W 054°02'1 0.6 1015.3 19.9
2018-Apr-19 07:00N 39°07' W 054°03'0 0.5 1014.3 19.4
2018-Apr-19 06:00N 39°07' W 054°04'1 0.8 1014.4 19.4
2018-Apr-19 05:00N 39°06' W 054°04'1 0.8 1014.0 19.4
2018-Apr-19 04:00N 39°05' W 054°05'0 0.2 1014.6 19.5
2018-Apr-19 02:00N 39°05' W 054°05'0 0.0 1015.5 19.5
2018-Apr-19 01:00N 39°05' W 054°05'0 0.0 1016.1 19.5
2018-Apr-19 00:00N 39°05' W 054°05'1 0.8 1016.2 19.5
2018-Apr-18 23:00N 39°06' W 054°06'0 0.0 1015.6 19.5
2018-Apr-18 22:00N 39°06' W 054°06'0 0.5 1015.1 19.5
2018-Apr-18 21:00N 39°06' W 054°07'1 0.6 1014.8 19.5
2018-Apr-18 20:00N 39°07' W 054°07'0 0.5 1013.7 19.5
2018-Apr-18 19:00N 39°07' W 054°07'1 0.7 1013.3 19.5
2018-Apr-18 17:00N 39°07' W 054°09'1 0.9 1013.0 19.5
2018-Apr-18 16:00N 39°07' W 054°10'1 0.9 1012.8 19.6
2018-Apr-18 15:00N 39°07' W 054°11'1 1.1 1012.9 19.7
2018-Apr-18 14:00N 39°06' W 054°13'1 0.8 1013.7 19.6
2018-Apr-18 13:00N 39°05' W 054°13'1 0.8 1013.5 19.7
2018-Apr-18 12:00N 39°05' W 054°14'1 0.8 1014.0 19.6
2018-Apr-18 11:00N 39°04' W 054°14'1 1.2 1014.1 19.6
2018-Apr-18 10:00N 39°03' W 054°14'1 0.6 1014.4 19.6
2018-Apr-18 09:00N 39°02' W 054°14'1 0.6 1014.5 19.6
2018-Apr-18 08:00N 39°02' W 054°14'0 0.5 1014.6 19.5
2018-Apr-18 07:00N 39°02' W 054°14'1 0.6 1015.2 19.5
2018-Apr-18 06:00N 39°01' W 054°14'1 0.6 1015.8 19.4
2018-Apr-18 05:00N 39°01' W 054°14'1 0.8 1016.9 19.4
2018-Apr-18 04:00N 39°00' W 054°13'1 0.6 1017.4 19.4
2018-Apr-18 03:00N 38°59' W 054°13'0 0.5 1018.7 19.4
2018-Apr-18 02:00N 38°59' W 054°13'1 0.6 1019.5 19.4
2018-Apr-18 01:00N 38°59' W 054°13'0 0.5 1020.2 19.4
2018-Apr-18 00:00N 38°59' W 054°12'1 0.8 1020.4 19.4
2018-Apr-17 23:00N 38°58' W 054°11'1 0.6 1020.8 19.4
2018-Apr-17 22:00N 38°58' W 054°11'1 0.4 1020.9 19.4
2018-Apr-17 20:00N 38°57' W 054°11'0 0.0 1021.6 19.3
2018-Apr-17 19:00N 38°57' W 054°11'1 0.8 1021.7 19.3
2018-Apr-17 18:00N 38°56' W 054°10'1 0.3 1022.3 19.3
2018-Apr-17 16:00N 38°56' W 054°10'1 0.6 1023.4 19.3
2018-Apr-17 15:00N 38°55' W 054°10'0 0.0 1024.0 19.3
2018-Apr-17 14:00N 38°55' W 054°10'1 0.8 1024.5 19.3
2018-Apr-17 13:00N 38°55' W 054°10'0 0.0 1024.7 19.3
2018-Apr-17 12:00N 38°55' W 054°10'1 0.6 1025.1 19.3
2018-Apr-17 11:00N 38°54' W 054°10'0 0.5 1025.5 19.3
2018-Apr-17 10:00N 38°54' W 054°09'1 0.6 1025.9 19.3
2018-Apr-17 09:00N 38°53' W 054°09'0 0.5 1025.9 19.3
2018-Apr-17 08:00N 38°53' W 054°08'0 0.0 1026.7 19.3
2018-Apr-17 07:00N 38°53' W 054°08'0 0.0 1026.8 19.3
2018-Apr-17 06:00N 38°53' W 054°08'1 0.4 1027.3 19.3
2018-Apr-17 04:00N 38°53' W 054°08'0 0.0 1027.9 19.3
2018-Apr-17 03:00N 38°53' W 054°08'1 0.6 1028.4 19.3
2018-Apr-17 02:00N 38°52' W 054°08'1 0.3 1028.8 19.3
2018-Apr-17 00:00N 38°52' W 054°08'0 0.5 1029.1 19.3
2018-Apr-16 23:00N 38°52' W 054°07'0 0.0 1028.9 19.3
2018-Apr-16 22:00N 38°52' W 054°07'1 0.8 1028.5 19.3
2018-Apr-16 21:00N 38°51' W 054°07'0 0.0 1028.3 19.3
2018-Apr-16 20:00N 38°51' W 054°07'1 0.4 1028.0 19.3
2018-Apr-16 18:00N 38°50' W 054°06'0 0.0 1028.0 19.4
2018-Apr-16 17:00N 38°50' W 054°06'1 0.6 1028.2 19.4
2018-Apr-16 16:00N 38°50' W 054°06'0 0.0 1028.5 19.4
2018-Apr-16 15:00N 38°50' W 054°06'1 0.6 1028.9 19.4
2018-Apr-16 14:00N 38°49' W 054°06'0 0.0 1029.4 19.3
2018-Apr-16 13:00N 38°49' W 054°06'0 0.5 1029.2 19.3
2018-Apr-16 12:00N 38°49' W 054°05'0 0.0 1028.6 19.3
2018-Apr-16 11:00N 38°49' W 054°05'0 0.5 1027.0 19.3
2018-Apr-16 10:00N 38°49' W 054°05'0 0.0 1026.7 19.3
2018-Apr-16 09:00N 38°49' W 054°05'0 0.5 1026.3 19.4
2018-Apr-16 08:00N 38°49' W 054°04'1 0.6 1026.6 19.4
2018-Apr-16 07:00N 38°49' W 054°04'0 0.5 1026.6 19.4
2018-Apr-16 06:00N 38°49' W 054°04'0 0.0 1026.5 19.4
2018-Apr-16 05:00N 38°49' W 054°04'0 0.0 1026.6 19.4
2018-Apr-16 04:00N 38°49' W 054°04'0 0.5 1026.6 19.4
2018-Apr-16 03:00N 38°49' W 054°03'0 0.0 1026.2 19.3
2018-Apr-16 02:00N 38°49' W 054°03'0 0.0 1026.3 19.3
2018-Apr-16 01:00N 38°49' W 054°03'0 0.0 1026.5 19.4
2018-Apr-16 00:00N 38°49' W 054°03'1 0.6 1026.3 19.4
2018-Apr-15 23:00N 38°48' W 054°03'0 0.5 1025.6 19.4
2018-Apr-15 22:00N 38°48' W 054°02'0 0.0 1024.7 19.3
2018-Apr-15 21:00N 38°48' W 054°02'0 0.0 1024.3 19.3
2018-Apr-15 20:00N 38°48' W 054°02'0 0.5 1024.2 19.3
2018-Apr-15 19:00N 38°48' W 054°02'0 0.0 1024.1 19.3
2018-Apr-15 18:00N 38°48' W 054°02'0 0.0 1024.4 19.4
2018-Apr-15 17:00N 38°48' W 054°02'0 0.0 1024.8 19.3
2018-Apr-15 16:00N 38°48' W 054°02'0 0.5 1024.5 19.4
2018-Apr-15 15:00N 38°48' W 054°01'0 0.0 1024.6 19.4
2018-Apr-15 14:00N 38°48' W 054°01'1 0.6 1024.1 19.4
2018-Apr-15 13:00N 38°49' W 054°01'0 0.0 1023.4 19.4
2018-Apr-15 12:00N 38°49' W 054°01'0 0.0 1022.7 19.4
2018-Apr-15 11:00N 38°49' W 054°01'0 0.0 1021.8 19.4
2018-Apr-15 10:00N 38°49' W 054°01'1 0.6 1020.8 19.4
2018-Apr-15 09:00N 38°48' W 054°01'0 0.0 1020.3 19.4
2018-Apr-15 08:00N 38°48' W 054°01'0 0.0 1020.1 19.4
2018-Apr-15 07:00N 38°48' W 054°01'0 0.5 1020.3 19.3
2018-Apr-15 06:00N 38°48' W 054°02'0 0.0 1020.3 19.4
2018-Apr-15 05:00N 38°48' W 054°02'0 0.2 1020.9 19.3
2018-Apr-15 03:00N 38°48' W 054°02'0 0.0 1022.0 19.3
2018-Apr-15 02:00N 38°48' W 054°02'0 0.5 1022.2 19.3
2018-Apr-15 01:00N 38°48' W 054°03'1 0.8 1022.2 19.4
2018-Apr-15 00:00N 38°47' W 054°04'0 0.5 1022.0 19.4
2018-Apr-14 23:00N 38°47' W 054°04'0 0.5 1021.3 19.4
2018-Apr-14 22:00N 38°47' W 054°05'1 0.4 1020.4 19.4
2018-Apr-14 20:00N 38°47' W 054°05'1 0.8 1020.7 19.4
2018-Apr-14 19:00N 38°46' W 054°06'1 0.8 1021.2 19.4
2018-Apr-14 18:00N 38°46' W 054°07'0 0.5 1022.0 19.4
2018-Apr-14 17:00N 38°46' W 054°07'1 0.8 1022.3 19.4
2018-Apr-14 16:00N 38°45' W 054°08'1 0.8 1022.7 19.4
2018-Apr-14 15:00N 38°44' W 054°08'0 0.5 1022.8 19.4
2018-Apr-14 14:00N 38°44' W 054°09'1 0.8 1022.8 19.3
2018-Apr-14 13:00N 38°44' W 054°10'0 0.0 1022.9 19.3
2018-Apr-14 12:00N 38°44' W 054°10'0 0.5 1023.1 19.3
2018-Apr-14 11:00N 38°44' W 054°10'0 0.0 1023.1 19.3
2018-Apr-14 10:00N 38°44' W 054°10'0 0.0 1023.2 19.3
2018-Apr-14 09:00N 38°44' W 054°10'1 0.6 1022.7 19.3
2018-Apr-14 08:00N 38°44' W 054°10'0 0.0 1022.7 19.3
2018-Apr-14 07:00N 38°44' W 054°10'0 0.5 1023.0 19.3
2018-Apr-14 06:00N 38°44' W 054°11'1 0.6 1023.1 19.3
2018-Apr-14 05:00N 38°45' W 054°11'0 0.0 1023.5 19.3
2018-Apr-14 04:00N 38°45' W 054°11'1 0.8 1023.9 19.3
2018-Apr-14 03:00N 38°46' W 054°11'0 0.0 1024.4 19.3
2018-Apr-14 02:00N 38°46' W 054°11'1 0.8 1025.1 19.3
2018-Apr-14 01:00N 38°46' W 054°12'0 0.0 1025.4 19.3
2018-Apr-14 00:00N 38°46' W 054°12'1 0.6 1025.3 19.4
2018-Apr-13 23:00N 38°47' W 054°12'0 0.0 1024.6 19.4
2018-Apr-13 22:00N 38°47' W 054°12'0 0.0 1024.3 19.4
2018-Apr-13 21:00N 38°47' W 054°12'1 0.8
2018-Apr-13 20:00N 38°47' W 054°11'0 0.0 1023.7 19.6
2018-Apr-13 19:00N 38°47' W 054°11'1 0.8 1023.6 19.6
2018-Apr-13 18:00N 38°48' W 054°11'1 0.8 1023.9 19.6
2018-Apr-13 17:00N 38°49' W 054°10'0 0.5 1024.0 19.5
2018-Apr-13 16:00N 38°49' W 054°10'1 0.8 1024.5 19.4
2018-Apr-13 15:00N 38°49' W 054°09'1 0.6 1024.9 19.4
2018-Apr-13 14:00N 38°50' W 054°09'1 0.8 1024.8 19.3
2018-Apr-13 13:00N 38°50' W 054°08'1 0.6 1024.5 19.3
2018-Apr-13 12:00N 38°51' W 054°08'1 0.6 1024.0 19.3
2018-Apr-13 11:00N 38°52' W 054°08'1 0.6 1023.7 19.3
2018-Apr-13 10:00N 38°52' W 054°08'1 0.6 1022.3 19.3
2018-Apr-13 08:00N 38°53' W 054°08'0 0.0 1020.0 19.3
2018-Apr-13 06:00N 38°53' W 054°08'1 0.6 1018.8 19.3
2018-Apr-13 05:00N 38°54' W 054°08'0 0.5 1018.5 19.3
2018-Apr-13 04:00N 38°54' W 054°08'0 0.0 1017.5 19.3
2018-Apr-13 03:00N 38°54' W 054°08'0 0.5 1016.6 19.3
2018-Apr-13 02:00N 38°54' W 054°07'0 0.0 1015.8 19.3
2018-Apr-13 01:00N 38°54' W 054°07'0 0.5 1015.0 19.3
2018-Apr-13 00:00N 38°54' W 054°07'0 0.5 1014.3 19.3
2018-Apr-12 23:00N 38°54' W 054°06'1 0.8 1013.6 19.3
2018-Apr-12 22:00N 38°55' W 054°05'0 0.5 1012.5 19.3
2018-Apr-12 21:00N 38°55' W 054°05'1 1.3 1011.9 19.3
2018-Apr-12 20:00N 38°56' W 054°04'1 0.8 1011.3 19.3
2018-Apr-12 19:00N 38°56' W 054°04'1 0.6 1009.7 19.3
2018-Apr-12 18:00N 38°57' W 054°04'1 1.2 1007.8 19.3
2018-Apr-12 17:00N 38°58' W 054°04'1 1.2 1007.2 19.3
2018-Apr-12 16:00N 38°59' W 054°04'1 1.3 1005.8 19.3
2018-Apr-12 15:00N 39°01' W 054°04'1 0.8 1004.7 19.3
2018-Apr-12 14:00N 39°01' W 054°05'1 1.1 1003.8 19.2
2018-Apr-12 13:00N 39°02' W 054°06'1 0.8 1001.2 19.3
2018-Apr-12 12:00N 39°01' W 054°07'1 0.9 1002.2 19.3
2018-Apr-12 11:00N 39°01' W 054°08'1 1.3 1001.2 19.3
2018-Apr-12 10:00N 39°00' W 054°08'1 0.6 1001.8 19.3
2018-Apr-12 09:00N 38°59' W 054°08'0 0.0 1002.8 19.1
2018-Apr-12 08:00N 38°59' W 054°08'0 0.5 1003.7 19.1
2018-Apr-12 07:00N 38°59' W 054°08'0 0.5 1005.5 19.2
2018-Apr-12 06:00N 38°59' W 054°07'1 0.8 1006.9 19.1
2018-Apr-12 05:00N 39°00' W 054°07'0 0.5 1008.1 19.2
2018-Apr-12 04:00N 39°00' W 054°06'1 0.8 1009.6 19.3
2018-Apr-12 03:00N 39°01' W 054°05'1 0.8 1010.4 19.3
2018-Apr-12 02:00N 39°01' W 054°05'1 1.2 1010.8 19.4
2018-Apr-12 01:00N 39°02' W 054°05'1 0.6 1011.2 19.3
2018-Apr-12 00:00N 39°03' W 054°05'1 0.8 1011.4 19.4
2018-Apr-11 23:00N 39°04' W 054°05'1 0.8 1010.8 19.4
2018-Apr-11 22:00N 39°04' W 054°06'1 0.8 1010.5 19.4
2018-Apr-11 21:00N 39°05' W 054°07'1 0.9 1009.8 19.4
2018-Apr-11 20:00N 39°05' W 054°08'0 0.5 1009.4 19.4
2018-Apr-11 19:00N 39°05' W 054°08'1 0.9 1009.3 19.4
2018-Apr-11 18:00N 39°05' W 054°10'1 0.8 1009.1 19.4
2018-Apr-11 17:00N 39°04' W 054°10'1 0.8 1009.4 19.4
2018-Apr-11 16:00N 39°04' W 054°11'0 0.5 1009.8 19.4
2018-Apr-11 15:00N 39°04' W 054°11'1 0.8 1010.1 19.4
2018-Apr-11 14:00N 39°03' W 054°12'1 0.6 1011.3 19.4
2018-Apr-11 13:00N 39°02' W 054°12'1 0.8 1012.6 19.4
2018-Apr-11 12:00N 39°02' W 054°11'1 0.4 1013.7 19.4
2018-Apr-11 10:00N 39°01' W 054°11'1 0.6 1016.3 19.3
2018-Apr-11 09:00N 39°01' W 054°11'0 0.5 1017.6 19.3
2018-Apr-11 08:00N 39°01' W 054°10'0 0.0 1018.4 19.3
2018-Apr-11 07:00N 39°01' W 054°10'0 0.0 1019.4 19.3
2018-Apr-11 06:00N 39°01' W 054°10'0 0.5 1020.9 19.3
2018-Apr-11 05:00N 39°01' W 054°10'0 0.0 1021.8 19.3
2018-Apr-11 04:00N 39°01' W 054°10'0 0.0 1022.9 19.3
2018-Apr-11 03:00N 39°01' W 054°10'0 0.0 1023.8 19.3
2018-Apr-11 02:00N 39°01' W 054°10'0 0.0 1024.1 19.3
2018-Apr-11 01:00N 39°01' W 054°10'0 0.0 1024.9 19.3
2018-Apr-11 00:00N 39°01' W 054°10'1 0.6 1025.4 19.3
2018-Apr-10 23:00N 39°01' W 054°10'0 0.0 1025.3 19.3
2018-Apr-10 22:00N 39°01' W 054°10'0 0.0 1024.8 19.3
2018-Apr-10 21:00N 39°01' W 054°10'0 0.0 1024.0 19.3
2018-Apr-10 20:00N 39°01' W 054°10'1 0.8 1023.8 19.3
2018-Apr-10 19:00N 39°02' W 054°09'0 0.0 1023.6 19.3
2018-Apr-10 18:00N 39°02' W 054°09'1 0.6 1023.5 19.3
2018-Apr-10 17:00N 39°02' W 054°09'0 0.5 1023.4 19.3
2018-Apr-10 16:00N 39°02' W 054°08'1 0.6 1023.5 19.3
2018-Apr-10 15:00N 39°03' W 054°08'0 0.0 1023.2 19.3
2018-Apr-10 14:00N 39°03' W 054°08'1 0.6 1022.9 19.3
2018-Apr-10 13:00N 39°04' W 054°08'1 0.6 1022.3 19.3
2018-Apr-10 12:00N 39°04' W 054°08'1 0.8 1021.5 19.3
2018-Apr-10 11:00N 39°05' W 054°09'1 0.6 1020.9 19.3
2018-Apr-10 10:00N 39°05' W 054°09'1 0.6 1020.0 19.3
2018-Apr-10 09:00N 39°06' W 054°09'1 0.8 1019.1 19.3
2018-Apr-10 08:00N 39°07' W 054°10'1 0.6 1018.5 19.4
2018-Apr-10 07:00N 39°07' W 054°10'0 0.0 1018.0 19.4
2018-Apr-10 06:00N 39°07' W 054°10'1 0.8 1018.2 19.4
2018-Apr-10 05:00N 39°08' W 054°10'0 0.0 1018.1 19.4
2018-Apr-10 04:00N 39°08' W 054°10'0 0.2 1018.1 19.4
2018-Apr-10 02:00N 39°08' W 054°11'1 0.6 1018.2 19.4
2018-Apr-10 01:00N 39°08' W 054°11'0 0.0 1018.1 19.4
2018-Apr-10 00:00N 39°08' W 054°11'0 0.5 1018.3 19.4
2018-Apr-09 23:00N 39°08' W 054°11'0 0.0 1017.2 19.4
2018-Apr-09 22:00N 39°08' W 054°11'1 0.6 1016.1 19.4
2018-Apr-09 21:00N 39°09' W 054°11'0 0.0 1015.4 19.4
2018-Apr-09 20:00N 39°09' W 054°11'0 0.5 1014.5 19.4
2018-Apr-09 19:00N 39°09' W 054°12'1 0.6 1013.8 19.4
2018-Apr-09 18:00N 39°10' W 054°12'0 0.5 1013.2 19.4
2018-Apr-09 17:00N 39°10' W 054°13'1 0.6 1012.5 19.4
2018-Apr-09 16:00N 39°10' W 054°13'   1012.6 19.5
Track history (hours):
 
Tides and Currents Weather Stations Pressure Air Temp Water Temp Dewpoint Dewpoint Depression Visibility Wind Speed Wind Dir Waves Ship Positions

Drifting buoy 44891

Last reported at 2018-Apr-19 16:00 UTC. Time now 2018-Apr-19 17:29 UTC.
Position N 39°13' W 054°02'.

Barometer 1018.4 mb
Water temperature 20.6 ° C

Date/timePositionNaut miles runAvg speedWind from/ knotsBaromVisibWave heightAir tempDewpointWater temp
2018-Apr-19 16:00N 39°13' W 054°02'1 1.2 1018.4 20.6
2018-Apr-19 15:00N 39°12' W 054°02'1 0.6 1018.7 20.6
2018-Apr-19 14:00N 39°11' W 054°02'1 0.6 1018.7 20.5
2018-Apr-19 13:00N 39°11' W 054°02'1 0.6 1018.1 20.5
2018-Apr-19 12:00N 39°10' W 054°02'1 0.6 1017.4 20.4
2018-Apr-19 11:00N 39°10' W 054°02'1 1.2 1016.7 20.2
2018-Apr-19 10:00N 39°08' W 054°02'1 0.8 1016.3 19.9
2018-Apr-19 09:00N 39°08' W 054°02'1 0.6 1015.3 19.9
2018-Apr-19 07:00N 39°07' W 054°03'0 0.5 1014.3 19.4
2018-Apr-19 06:00N 39°07' W 054°04'1 0.8 1014.4 19.4
2018-Apr-19 05:00N 39°06' W 054°04'1 0.8 1014.0 19.4
2018-Apr-19 04:00N 39°05' W 054°05'0 0.2 1014.6 19.5
2018-Apr-19 02:00N 39°05' W 054°05'0 0.0 1015.5 19.5
2018-Apr-19 01:00N 39°05' W 054°05'0 0.0 1016.1 19.5
2018-Apr-19 00:00N 39°05' W 054°05'1 0.8 1016.2 19.5
2018-Apr-18 23:00N 39°06' W 054°06'0 0.0 1015.6 19.5
2018-Apr-18 22:00N 39°06' W 054°06'0 0.5 1015.1 19.5
2018-Apr-18 21:00N 39°06' W 054°07'1 0.6 1014.8 19.5
2018-Apr-18 20:00N 39°07' W 054°07'0 0.5 1013.7 19.5
2018-Apr-18 19:00N 39°07' W 054°07'1 0.7 1013.3 19.5
2018-Apr-18 17:00N 39°07' W 054°09'1 0.9 1013.0 19.5
2018-Apr-18 16:00N 39°07' W 054°10'1 0.9 1012.8 19.6
2018-Apr-18 15:00N 39°07' W 054°11'1 1.1 1012.9 19.7
2018-Apr-18 14:00N 39°06' W 054°13'1 0.8 1013.7 19.6
2018-Apr-18 13:00N 39°05' W 054°13'1 0.8 1013.5 19.7
2018-Apr-18 12:00N 39°05' W 054°14'1 0.8 1014.0 19.6
2018-Apr-18 11:00N 39°04' W 054°14'1 1.2 1014.1 19.6
2018-Apr-18 10:00N 39°03' W 054°14'1 0.6 1014.4 19.6
2018-Apr-18 09:00N 39°02' W 054°14'1 0.6 1014.5 19.6
2018-Apr-18 08:00N 39°02' W 054°14'0 0.5 1014.6 19.5
2018-Apr-18 07:00N 39°02' W 054°14'1 0.6 1015.2 19.5
2018-Apr-18 06:00N 39°01' W 054°14'1 0.6 1015.8 19.4
2018-Apr-18 05:00N 39°01' W 054°14'1 0.8 1016.9 19.4
2018-Apr-18 04:00N 39°00' W 054°13'1 0.6 1017.4 19.4
2018-Apr-18 03:00N 38°59' W 054°13'0 0.5 1018.7 19.4
2018-Apr-18 02:00N 38°59' W 054°13'1 0.6 1019.5 19.4
2018-Apr-18 01:00N 38°59' W 054°13'0 0.5 1020.2 19.4
2018-Apr-18 00:00N 38°59' W 054°12'1 0.8 1020.4 19.4
2018-Apr-17 23:00N 38°58' W 054°11'1 0.6 1020.8 19.4
2018-Apr-17 22:00N 38°58' W 054°11'1 0.4 1020.9 19.4
2018-Apr-17 20:00N 38°57' W 054°11'0 0.0 1021.6 19.3
2018-Apr-17 19:00N 38°57' W 054°11'1 0.8 1021.7 19.3
2018-Apr-17 18:00N 38°56' W 054°10'1 0.3 1022.3 19.3
2018-Apr-17 16:00N 38°56' W 054°10'1 0.6 1023.4 19.3
2018-Apr-17 15:00N 38°55' W 054°10'0 0.0 1024.0 19.3
2018-Apr-17 14:00N 38°55' W 054°10'1 0.8 1024.5 19.3
2018-Apr-17 13:00N 38°55' W 054°10'0 0.0 1024.7 19.3
2018-Apr-17 12:00N 38°55' W 054°10'1 0.6 1025.1 19.3
2018-Apr-17 11:00N 38°54' W 054°10'0 0.5 1025.5 19.3
2018-Apr-17 10:00N 38°54' W 054°09'1 0.6 1025.9 19.3
2018-Apr-17 09:00N 38°53' W 054°09'0 0.5 1025.9 19.3
2018-Apr-17 08:00N 38°53' W 054°08'0 0.0 1026.7 19.3
2018-Apr-17 07:00N 38°53' W 054°08'0 0.0 1026.8 19.3
2018-Apr-17 06:00N 38°53' W 054°08'1 0.4 1027.3 19.3
2018-Apr-17 04:00N 38°53' W 054°08'0 0.0 1027.9 19.3
2018-Apr-17 03:00N 38°53' W 054°08'1 0.6 1028.4 19.3
2018-Apr-17 02:00N 38°52' W 054°08'1 0.3 1028.8 19.3
2018-Apr-17 00:00N 38°52' W 054°08'0 0.5 1029.1 19.3
2018-Apr-16 23:00N 38°52' W 054°07'0 0.0 1028.9 19.3
2018-Apr-16 22:00N 38°52' W 054°07'1 0.8 1028.5 19.3
2018-Apr-16 21:00N 38°51' W 054°07'0 0.0 1028.3 19.3
2018-Apr-16 20:00N 38°51' W 054°07'1 0.4 1028.0 19.3
2018-Apr-16 18:00N 38°50' W 054°06'0 0.0 1028.0 19.4
2018-Apr-16 17:00N 38°50' W 054°06'1 0.6 1028.2 19.4
2018-Apr-16 16:00N 38°50' W 054°06'0 0.0 1028.5 19.4
2018-Apr-16 15:00N 38°50' W 054°06'1 0.6 1028.9 19.4
2018-Apr-16 14:00N 38°49' W 054°06'0 0.0 1029.4 19.3
2018-Apr-16 13:00N 38°49' W 054°06'0 0.5 1029.2 19.3
2018-Apr-16 12:00N 38°49' W 054°05'0 0.0 1028.6 19.3
2018-Apr-16 11:00N 38°49' W 054°05'0 0.5 1027.0 19.3
2018-Apr-16 10:00N 38°49' W 054°05'0 0.0 1026.7 19.3
2018-Apr-16 09:00N 38°49' W 054°05'0 0.5 1026.3 19.4
2018-Apr-16 08:00N 38°49' W 054°04'1 0.6 1026.6 19.4
2018-Apr-16 07:00N 38°49' W 054°04'0 0.5 1026.6 19.4
2018-Apr-16 06:00N 38°49' W 054°04'0 0.0 1026.5 19.4
2018-Apr-16 05:00N 38°49' W 054°04'0 0.0 1026.6 19.4
2018-Apr-16 04:00N 38°49' W 054°04'0 0.5 1026.6 19.4
2018-Apr-16 03:00N 38°49' W 054°03'0 0.0 1026.2 19.3
2018-Apr-16 02:00N 38°49' W 054°03'0 0.0 1026.3 19.3
2018-Apr-16 01:00N 38°49' W 054°03'0 0.0 1026.5 19.4
2018-Apr-16 00:00N 38°49' W 054°03'1 0.6 1026.3 19.4
2018-Apr-15 23:00N 38°48' W 054°03'0 0.5 1025.6 19.4
2018-Apr-15 22:00N 38°48' W 054°02'0 0.0 1024.7 19.3
2018-Apr-15 21:00N 38°48' W 054°02'0 0.0 1024.3 19.3
2018-Apr-15 20:00N 38°48' W 054°02'0 0.5 1024.2 19.3
2018-Apr-15 19:00N 38°48' W 054°02'0 0.0 1024.1 19.3
2018-Apr-15 18:00N 38°48' W 054°02'0 0.0 1024.4 19.4
2018-Apr-15 17:00N 38°48' W 054°02'0 0.0 1024.8 19.3
2018-Apr-15 16:00N 38°48' W 054°02'0 0.5 1024.5 19.4
2018-Apr-15 15:00N 38°48' W 054°01'0 0.0 1024.6 19.4
2018-Apr-15 14:00N 38°48' W 054°01'1 0.6 1024.1 19.4
2018-Apr-15 13:00N 38°49' W 054°01'0 0.0 1023.4 19.4
2018-Apr-15 12:00N 38°49' W 054°01'0 0.0 1022.7 19.4
2018-Apr-15 11:00N 38°49' W 054°01'0 0.0 1021.8 19.4
2018-Apr-15 10:00N 38°49' W 054°01'1 0.6 1020.8 19.4
2018-Apr-15 09:00N 38°48' W 054°01'0 0.0 1020.3 19.4
2018-Apr-15 08:00N 38°48' W 054°01'0 0.0 1020.1 19.4
2018-Apr-15 07:00N 38°48' W 054°01'0 0.5 1020.3 19.3
2018-Apr-15 06:00N 38°48' W 054°02'0 0.0 1020.3 19.4
2018-Apr-15 05:00N 38°48' W 054°02'0 0.2 1020.9 19.3
2018-Apr-15 03:00N 38°48' W 054°02'0 0.0 1022.0 19.3
2018-Apr-15 02:00N 38°48' W 054°02'0 0.5 1022.2 19.3
2018-Apr-15 01:00N 38°48' W 054°03'1 0.8 1022.2 19.4
2018-Apr-15 00:00N 38°47' W 054°04'0 0.5 1022.0 19.4
2018-Apr-14 23:00N 38°47' W 054°04'0 0.5 1021.3 19.4
2018-Apr-14 22:00N 38°47' W 054°05'1 0.4 1020.4 19.4
2018-Apr-14 20:00N 38°47' W 054°05'1 0.8 1020.7 19.4
2018-Apr-14 19:00N 38°46' W 054°06'1 0.8 1021.2 19.4
2018-Apr-14 18:00N 38°46' W 054°07'0 0.5 1022.0 19.4
2018-Apr-14 17:00N 38°46' W 054°07'1 0.8 1022.3 19.4
2018-Apr-14 16:00N 38°45' W 054°08'1 0.8 1022.7 19.4
2018-Apr-14 15:00N 38°44' W 054°08'0 0.5 1022.8 19.4
2018-Apr-14 14:00N 38°44' W 054°09'1 0.8 1022.8 19.3
2018-Apr-14 13:00N 38°44' W 054°10'0 0.0 1022.9 19.3
2018-Apr-14 12:00N 38°44' W 054°10'0 0.5 1023.1 19.3
2018-Apr-14 11:00N 38°44' W 054°10'0 0.0 1023.1 19.3
2018-Apr-14 10:00N 38°44' W 054°10'0 0.0 1023.2 19.3
2018-Apr-14 09:00N 38°44' W 054°10'1 0.6 1022.7 19.3
2018-Apr-14 08:00N 38°44' W 054°10'0 0.0 1022.7 19.3
2018-Apr-14 07:00N 38°44' W 054°10'0 0.5 1023.0 19.3
2018-Apr-14 06:00N 38°44' W 054°11'1 0.6 1023.1 19.3
2018-Apr-14 05:00N 38°45' W 054°11'0 0.0 1023.5 19.3
2018-Apr-14 04:00N 38°45' W 054°11'1 0.8 1023.9 19.3
2018-Apr-14 03:00N 38°46' W 054°11'0 0.0 1024.4 19.3
2018-Apr-14 02:00N 38°46' W 054°11'1 0.8 1025.1 19.3
2018-Apr-14 01:00N 38°46' W 054°12'0 0.0 1025.4 19.3
2018-Apr-14 00:00N 38°46' W 054°12'1 0.6 1025.3 19.4
2018-Apr-13 23:00N 38°47' W 054°12'0 0.0 1024.6 19.4
2018-Apr-13 22:00N 38°47' W 054°12'0 0.0 1024.3 19.4
2018-Apr-13 21:00N 38°47' W 054°12'1 0.8
2018-Apr-13 20:00N 38°47' W 054°11'0 0.0 1023.7 19.6
2018-Apr-13 19:00N 38°47' W 054°11'1 0.8 1023.6 19.6
2018-Apr-13 18:00N 38°48' W 054°11'1 0.8 1023.9 19.6
2018-Apr-13 17:00N 38°49' W 054°10'0 0.5 1024.0 19.5
2018-Apr-13 16:00N 38°49' W 054°10'1 0.8 1024.5 19.4
2018-Apr-13 15:00N 38°49' W 054°09'1 0.6 1024.9 19.4
2018-Apr-13 14:00N 38°50' W 054°09'1 0.8 1024.8 19.3
2018-Apr-13 13:00N 38°50' W 054°08'1 0.6 1024.5 19.3
2018-Apr-13 12:00N 38°51' W 054°08'1 0.6 1024.0 19.3
2018-Apr-13 11:00N 38°52' W 054°08'1 0.6 1023.7 19.3
2018-Apr-13 10:00N 38°52' W 054°08'1 0.6 1022.3 19.3
2018-Apr-13 08:00N 38°53' W 054°08'0 0.0 1020.0 19.3
2018-Apr-13 06:00N 38°53' W 054°08'1 0.6 1018.8 19.3
2018-Apr-13 05:00N 38°54' W 054°08'0 0.5 1018.5 19.3
2018-Apr-13 04:00N 38°54' W 054°08'0 0.0 1017.5 19.3
2018-Apr-13 03:00N 38°54' W 054°08'0 0.5 1016.6 19.3
2018-Apr-13 02:00N 38°54' W 054°07'0 0.0 1015.8 19.3
2018-Apr-13 01:00N 38°54' W 054°07'0 0.5 1015.0 19.3
2018-Apr-13 00:00N 38°54' W 054°07'0 0.5 1014.3 19.3
2018-Apr-12 23:00N 38°54' W 054°06'1 0.8 1013.6 19.3
2018-Apr-12 22:00N 38°55' W 054°05'0 0.5 1012.5 19.3
2018-Apr-12 21:00N 38°55' W 054°05'1 1.3 1011.9 19.3
2018-Apr-12 20:00N 38°56' W 054°04'1 0.8 1011.3 19.3
2018-Apr-12 19:00N 38°56' W 054°04'1 0.6 1009.7 19.3
2018-Apr-12 18:00N 38°57' W 054°04'1 1.2 1007.8 19.3
2018-Apr-12 17:00N 38°58' W 054°04'1 1.2 1007.2 19.3
2018-Apr-12 16:00N 38°59' W 054°04'1 1.3 1005.8 19.3
2018-Apr-12 15:00N 39°01' W 054°04'1 0.8 1004.7 19.3
2018-Apr-12 14:00N 39°01' W 054°05'1 1.1 1003.8 19.2
2018-Apr-12 13:00N 39°02' W 054°06'1 0.8 1001.2 19.3
2018-Apr-12 12:00N 39°01' W 054°07'1 0.9 1002.2 19.3
2018-Apr-12 11:00N 39°01' W 054°08'1 1.3 1001.2 19.3
2018-Apr-12 10:00N 39°00' W 054°08'1 0.6 1001.8 19.3
2018-Apr-12 09:00N 38°59' W 054°08'0 0.0 1002.8 19.1
2018-Apr-12 08:00N 38°59' W 054°08'0 0.5 1003.7 19.1
2018-Apr-12 07:00N 38°59' W 054°08'0 0.5 1005.5 19.2
2018-Apr-12 06:00N 38°59' W 054°07'1 0.8 1006.9 19.1
2018-Apr-12 05:00N 39°00' W 054°07'0 0.5 1008.1 19.2
2018-Apr-12 04:00N 39°00' W 054°06'1 0.8 1009.6 19.3
2018-Apr-12 03:00N 39°01' W 054°05'1 0.8 1010.4 19.3
2018-Apr-12 02:00N 39°01' W 054°05'1 1.2 1010.8 19.4
2018-Apr-12 01:00N 39°02' W 054°05'1 0.6 1011.2 19.3
2018-Apr-12 00:00N 39°03' W 054°05'1 0.8 1011.4 19.4
2018-Apr-11 23:00N 39°04' W 054°05'1 0.8 1010.8 19.4
2018-Apr-11 22:00N 39°04' W 054°06'1 0.8 1010.5 19.4
2018-Apr-11 21:00N 39°05' W 054°07'1 0.9 1009.8 19.4
2018-Apr-11 20:00N 39°05' W 054°08'0 0.5 1009.4 19.4
2018-Apr-11 19:00N 39°05' W 054°08'1 0.9 1009.3 19.4
2018-Apr-11 18:00N 39°05' W 054°10'1 0.8 1009.1 19.4
2018-Apr-11 17:00N 39°04' W 054°10'1 0.8 1009.4 19.4
2018-Apr-11 16:00N 39°04' W 054°11'0 0.5 1009.8 19.4
2018-Apr-11 15:00N 39°04' W 054°11'1 0.8 1010.1 19.4
2018-Apr-11 14:00N 39°03' W 054°12'1 0.6 1011.3 19.4
2018-Apr-11 13:00N 39°02' W 054°12'1 0.8 1012.6 19.4
2018-Apr-11 12:00N 39°02' W 054°11'1 0.4 1013.7 19.4
2018-Apr-11 10:00N 39°01' W 054°11'1 0.6 1016.3 19.3
2018-Apr-11 09:00N 39°01' W 054°11'0 0.5 1017.6 19.3
2018-Apr-11 08:00N 39°01' W 054°10'0 0.0 1018.4 19.3
2018-Apr-11 07:00N 39°01' W 054°10'0 0.0 1019.4 19.3
2018-Apr-11 06:00N 39°01' W 054°10'0 0.5 1020.9 19.3
2018-Apr-11 05:00N 39°01' W 054°10'0 0.0 1021.8 19.3
2018-Apr-11 04:00N 39°01' W 054°10'0 0.0 1022.9 19.3
2018-Apr-11 03:00N 39°01' W 054°10'0 0.0 1023.8 19.3
2018-Apr-11 02:00N 39°01' W 054°10'0 0.0 1024.1 19.3
2018-Apr-11 01:00N 39°01' W 054°10'0 0.0 1024.9 19.3
2018-Apr-11 00:00N 39°01' W 054°10'1 0.6 1025.4 19.3
2018-Apr-10 23:00N 39°01' W 054°10'0 0.0 1025.3 19.3
2018-Apr-10 22:00N 39°01' W 054°10'0 0.0 1024.8 19.3
2018-Apr-10 21:00N 39°01' W 054°10'0 0.0 1024.0 19.3
2018-Apr-10 20:00N 39°01' W 054°10'1 0.8 1023.8 19.3
2018-Apr-10 19:00N 39°02' W 054°09'0 0.0 1023.6 19.3
2018-Apr-10 18:00N 39°02' W 054°09'1 0.6 1023.5 19.3
2018-Apr-10 17:00N 39°02' W 054°09'0 0.5 1023.4 19.3
2018-Apr-10 16:00N 39°02' W 054°08'1 0.6 1023.5 19.3
2018-Apr-10 15:00N 39°03' W 054°08'0 0.0 1023.2 19.3
2018-Apr-10 14:00N 39°03' W 054°08'1 0.6 1022.9 19.3
2018-Apr-10 13:00N 39°04' W 054°08'1 0.6 1022.3 19.3
2018-Apr-10 12:00N 39°04' W 054°08'1 0.8 1021.5 19.3
2018-Apr-10 11:00N 39°05' W 054°09'1 0.6 1020.9 19.3
2018-Apr-10 10:00N 39°05' W 054°09'1 0.6 1020.0 19.3
2018-Apr-10 09:00N 39°06' W 054°09'1 0.8 1019.1 19.3
2018-Apr-10 08:00N 39°07' W 054°10'1 0.6 1018.5 19.4
2018-Apr-10 07:00N 39°07' W 054°10'0 0.0 1018.0 19.4
2018-Apr-10 06:00N 39°07' W 054°10'1 0.8 1018.2 19.4
2018-Apr-10 05:00N 39°08' W 054°10'0 0.0 1018.1 19.4
2018-Apr-10 04:00N 39°08' W 054°10'0 0.2 1018.1 19.4
2018-Apr-10 02:00N 39°08' W 054°11'1 0.6 1018.2 19.4
2018-Apr-10 01:00N 39°08' W 054°11'0 0.0 1018.1 19.4
2018-Apr-10 00:00N 39°08' W 054°11'0 0.5 1018.3 19.4
2018-Apr-09 23:00N 39°08' W 054°11'0 0.0 1017.2 19.4
2018-Apr-09 22:00N 39°08' W 054°11'1 0.6 1016.1 19.4
2018-Apr-09 21:00N 39°09' W 054°11'0 0.0 1015.4 19.4
2018-Apr-09 20:00N 39°09' W 054°11'0 0.5 1014.5 19.4
2018-Apr-09 19:00N 39°09' W 054°12'1 0.6 1013.8 19.4
2018-Apr-09 18:00N 39°10' W 054°12'0 0.5 1013.2 19.4
2018-Apr-09 17:00N 39°10' W 054°13'1 0.6 1012.5 19.4
2018-Apr-09 16:00N 39°10' W 054°13'   1012.6 19.5

Dump ship's entire track history